createdAt,value
2017-09-29T00:01:26.826Z,31.57
2017-09-29T00:03:53.441Z,33.77
2017-09-29T00:06:20.186Z,30.80
2017-09-29T00:08:47.694Z,31.87
2017-09-29T00:11:14.329Z,29.30
2017-09-29T00:13:41.067Z,30.80
2017-09-29T00:16:07.967Z,29.93
2017-09-29T00:18:34.788Z,32.13
2017-09-29T00:21:01.295Z,32.90
2017-09-29T00:23:28.199Z,31.33
2017-09-29T00:25:54.861Z,30.60
2017-09-29T00:28:21.499Z,31.70
2017-09-29T00:30:48.114Z,33.30
2017-09-29T00:33:14.821Z,32.03
2017-09-29T00:35:41.431Z,32.00
2017-09-29T00:38:08.057Z,32.50
2017-09-29T00:40:34.809Z,31.53
2017-09-29T00:43:01.528Z,32.30
2017-09-29T00:45:28.358Z,34.20
2017-09-29T00:47:55.856Z,32.60
2017-09-29T00:50:22.466Z,32.50
2017-09-29T00:52:49.052Z,32.77
2017-09-29T00:55:15.799Z,33.37
2017-09-29T00:57:42.464Z,33.70
2017-09-29T01:00:09.170Z,32.30
2017-09-29T01:02:35.784Z,33.57
2017-09-29T01:05:03.170Z,33.17
2017-09-29T01:07:29.899Z,34.10
2017-09-29T01:09:56.599Z,31.80
2017-09-29T01:12:23.424Z,35.87
2017-09-29T01:14:50.087Z,33.80
2017-09-29T01:17:16.779Z,33.07
2017-09-29T01:19:43.657Z,33.53
2017-09-29T01:22:10.822Z,34.03
2017-09-29T01:24:37.501Z,33.00
2017-09-29T01:27:04.942Z,34.47
2017-09-29T01:29:31.556Z,33.67
2017-09-29T01:31:58.207Z,36.47
2017-09-29T01:34:24.885Z,38.70
2017-09-29T01:36:51.671Z,38.00
2017-09-29T01:39:19.227Z,35.20
2017-09-29T01:41:45.844Z,35.37
2017-09-29T01:44:12.700Z,36.13
2017-09-29T01:46:39.367Z,35.53
2017-09-29T01:49:06.179Z,37.97
2017-09-29T01:51:32.844Z,38.93
2017-09-29T01:53:59.457Z,38.67
2017-09-29T01:56:26.240Z,38.97
2017-09-29T01:58:52.839Z,37.77
2017-09-29T02:01:19.741Z,39.13
2017-09-29T02:03:46.391Z,38.80
2017-09-29T02:06:13.386Z,39.50
2017-09-29T02:08:40.081Z,37.90
2017-09-29T02:11:07.092Z,40.43
2017-09-29T02:13:34.422Z,39.27
2017-09-29T02:16:01.040Z,41.90
2017-09-29T02:18:27.767Z,39.30
2017-09-29T02:20:54.509Z,37.43
2017-09-29T02:23:21.391Z,39.00
2017-09-29T02:25:48.032Z,38.50
2017-09-29T02:28:14.725Z,40.10
2017-09-29T02:30:41.329Z,39.30
2017-09-29T02:33:07.915Z,39.80
2017-09-29T02:35:35.608Z,40.47
2017-09-29T02:38:02.283Z,39.07
2017-09-29T02:40:28.945Z,42.10
2017-09-29T02:42:56.361Z,39.67
2017-09-29T02:45:23.147Z,40.77
2017-09-29T02:47:49.735Z,39.93
2017-09-29T02:50:16.589Z,43.07
2017-09-29T02:52:43.284Z,40.23
2017-09-29T02:55:10.025Z,39.10
2017-09-29T02:57:38.380Z,44.37
2017-09-29T03:00:05.977Z,39.97
2017-09-29T03:02:34.311Z,39.30
2017-09-29T03:05:04.984Z,39.60
2017-09-29T03:07:31.659Z,41.63
2017-09-29T03:09:58.355Z,40.50
2017-09-29T03:12:25.339Z,40.77
2017-09-29T03:14:51.881Z,41.73
2017-09-29T03:17:18.474Z,41.03
2017-09-29T03:19:45.140Z,41.67
2017-09-29T03:22:11.922Z,41.57
2017-09-29T03:24:38.929Z,43.80
2017-09-29T03:27:05.825Z,41.40
2017-09-29T03:29:32.412Z,41.23
2017-09-29T03:31:59.008Z,43.93
2017-09-29T03:34:25.682Z,45.60
2017-09-29T03:36:52.497Z,43.50
2017-09-29T03:39:19.214Z,43.43
2017-09-29T03:41:45.994Z,42.10
2017-09-29T03:44:12.650Z,42.90
2017-09-29T03:46:39.455Z,43.37
2017-09-29T03:49:06.237Z,42.83
2017-09-29T03:51:38.599Z,42.93
2017-09-29T03:54:07.575Z,41.40
2017-09-29T03:56:35.001Z,42.90
2017-09-29T03:59:03.444Z,43.63
2017-09-29T04:01:30.056Z,42.27
2017-09-29T04:03:56.703Z,41.90
2017-09-29T04:06:23.492Z,43.90
2017-09-29T04:08:50.281Z,43.87
2017-09-29T04:11:17.071Z,42.73
2017-09-29T04:13:43.841Z,43.30
2017-09-29T04:16:11.312Z,45.47
2017-09-29T04:18:38.022Z,48.80
2017-09-29T04:21:04.901Z,44.87
2017-09-29T04:23:31.527Z,44.20
2017-09-29T04:25:58.725Z,44.30
2017-09-29T04:28:25.474Z,46.37
2017-09-29T04:30:52.258Z,45.33
2017-09-29T04:33:18.993Z,45.00
2017-09-29T04:35:45.784Z,47.20
2017-09-29T04:38:12.735Z,45.50
2017-09-29T04:40:39.543Z,46.00
2017-09-29T04:43:06.258Z,46.87
2017-09-29T04:45:33.732Z,46.63
2017-09-29T04:48:00.436Z,46.27
2017-09-29T04:50:27.205Z,46.00
2017-09-29T04:52:54.180Z,45.50
2017-09-29T04:55:20.780Z,45.47
2017-09-29T04:57:47.526Z,44.17
2017-09-29T05:00:15.180Z,43.97
2017-09-29T05:02:42.507Z,46.63
2017-09-29T05:05:09.308Z,45.50
2017-09-29T05:07:36.870Z,45.30
2017-09-29T05:10:03.982Z,45.27
2017-09-29T05:12:30.825Z,44.37
2017-09-29T05:14:57.801Z,44.73
2017-09-29T05:17:25.981Z,41.80
2017-09-29T05:19:52.894Z,46.80
2017-09-29T05:22:19.713Z,44.40
2017-09-29T05:24:46.542Z,44.73
2017-09-29T05:27:13.336Z,42.97
2017-09-29T05:29:40.393Z,45.77
2017-09-29T05:32:07.360Z,45.03
2017-09-29T05:34:34.044Z,44.70
2017-09-29T05:37:00.845Z,42.57
2017-09-29T05:39:27.804Z,45.03
2017-09-29T05:41:54.627Z,42.73
2017-09-29T05:44:21.442Z,42.03
2017-09-29T05:46:48.161Z,43.33
2017-09-29T05:49:14.748Z,42.60
2017-09-29T05:51:41.500Z,41.67
2017-09-29T05:54:08.245Z,42.57
2017-09-29T05:56:35.106Z,42.30
2017-09-29T05:59:02.672Z,40.80
2017-09-29T06:01:29.445Z,40.60
2017-09-29T06:03:56.109Z,40.80
2017-09-29T06:06:23.917Z,39.87
2017-09-29T06:08:50.524Z,41.63
2017-09-29T06:11:17.213Z,39.60
2017-09-29T06:13:43.878Z,42.80
2017-09-29T06:16:10.670Z,39.10
2017-09-29T06:18:37.406Z,39.70
2017-09-29T06:21:04.213Z,38.50
2017-09-29T06:23:30.881Z,39.50
2017-09-29T06:25:57.589Z,38.90
2017-09-29T06:28:24.699Z,40.87
2017-09-29T06:30:51.433Z,41.50
2017-09-29T06:33:18.183Z,38.60
2017-09-29T06:35:44.877Z,39.27
2017-09-29T06:38:11.659Z,38.87
2017-09-29T06:40:38.341Z,39.00
2017-09-29T06:43:05.079Z,38.07
2017-09-29T06:45:31.676Z,39.30
2017-09-29T06:47:58.405Z,37.00
2017-09-29T06:50:25.258Z,36.63
2017-09-29T06:52:52.064Z,34.70
2017-09-29T06:55:18.763Z,37.50
2017-09-29T06:57:46.404Z,36.00
2017-09-29T07:00:13.186Z,36.60
2017-09-29T07:02:40.619Z,36.87
2017-09-29T07:05:07.373Z,34.43
2017-09-29T07:07:33.935Z,33.27
2017-09-29T07:10:00.533Z,36.93
2017-09-29T07:12:27.617Z,32.13
2017-09-29T07:14:54.262Z,31.63
2017-09-29T07:17:21.056Z,32.03
2017-09-29T07:19:47.816Z,33.37
2017-09-29T07:22:14.488Z,32.37
2017-09-29T07:24:44.999Z,34.57
2017-09-29T07:27:12.918Z,33.40
2017-09-29T07:29:41.066Z,30.97
2017-09-29T07:32:11.123Z,31.80
2017-09-29T07:34:38.159Z,32.00
2017-09-29T07:37:04.985Z,30.77
2017-09-29T07:39:32.437Z,30.63
2017-09-29T07:41:59.406Z,29.30
2017-09-29T07:44:26.315Z,29.17
2017-09-29T07:46:53.561Z,30.60
2017-09-29T07:49:20.367Z,29.30
2017-09-29T07:51:47.146Z,27.17
2017-09-29T07:54:13.972Z,28.60
2017-09-29T07:56:41.086Z,27.80
2017-09-29T07:59:07.958Z,27.57
2017-09-29T08:01:34.798Z,28.93
2017-09-29T08:04:01.396Z,27.03
2017-09-29T08:06:28.136Z,27.77
2017-09-29T08:08:54.816Z,27.33
2017-09-29T08:11:21.484Z,27.60
2017-09-29T08:13:48.217Z,27.00
2017-09-29T08:16:14.892Z,26.90
2017-09-29T08:18:41.724Z,25.50
2017-09-29T08:21:08.454Z,24.77
2017-09-29T08:23:35.190Z,24.87
2017-09-29T08:26:02.792Z,24.20
2017-09-29T08:28:29.497Z,25.60
2017-09-29T08:30:56.226Z,25.67
2017-09-29T08:33:22.982Z,24.70
2017-09-29T08:35:49.664Z,24.70
2017-09-29T08:38:16.336Z,24.30
2017-09-29T08:40:43.057Z,23.20
2017-09-29T08:43:09.644Z,23.23
2017-09-29T08:45:36.392Z,23.30
2017-09-29T08:48:03.186Z,24.10
2017-09-29T08:50:29.844Z,24.07
2017-09-29T08:52:56.470Z,23.83
2017-09-29T08:55:23.231Z,22.73
2017-09-29T08:57:50.679Z,22.63
2017-09-29T09:00:17.493Z,21.40
2017-09-29T09:02:44.324Z,22.40
2017-09-29T09:05:11.676Z,20.90
2017-09-29T09:07:38.512Z,21.33
2017-09-29T09:10:05.310Z,21.20
2017-09-29T09:12:31.994Z,21.93
2017-09-29T09:14:59.358Z,22.17
2017-09-29T09:17:26.794Z,23.73
2017-09-29T09:19:53.361Z,23.03
2017-09-29T09:22:19.985Z,23.30
2017-09-29T09:24:46.665Z,22.53
2017-09-29T09:27:13.433Z,23.20
2017-09-29T09:29:40.220Z,22.47
2017-09-29T09:32:07.256Z,23.73
2017-09-29T09:34:33.870Z,23.93
2017-09-29T09:37:01.372Z,21.73
2017-09-29T09:39:28.284Z,22.60
2017-09-29T09:41:55.022Z,21.70
2017-09-29T09:44:21.784Z,21.03
2017-09-29T09:46:48.422Z,19.67
2017-09-29T09:49:15.232Z,18.37
2017-09-29T09:51:42.087Z,18.83
2017-09-29T09:54:08.929Z,18.97
2017-09-29T09:56:35.635Z,17.30
2017-09-29T09:59:02.322Z,17.73
2017-09-29T10:01:29.130Z,18.10
2017-09-29T10:03:55.886Z,18.50
2017-09-29T10:06:22.586Z,18.97
2017-09-29T10:08:49.164Z,17.63
2017-09-29T10:11:15.855Z,18.47
2017-09-29T10:13:42.567Z,18.40
2017-09-29T10:16:09.202Z,17.40
2017-09-29T10:18:35.918Z,20.33
2017-09-29T10:21:02.587Z,19.30
2017-09-29T10:23:29.263Z,16.80
2017-09-29T10:25:55.823Z,16.67
2017-09-29T10:28:22.598Z,17.03
2017-09-29T10:30:49.418Z,17.63
2017-09-29T10:33:16.437Z,17.50
2017-09-29T10:35:43.237Z,17.70
2017-09-29T10:38:10.092Z,18.37
2017-09-29T10:40:36.644Z,18.50
2017-09-29T10:43:03.585Z,17.87
2017-09-29T10:45:30.511Z,17.33
2017-09-29T10:47:57.178Z,17.50
2017-09-29T10:50:23.935Z,16.97
2017-09-29T10:52:50.656Z,15.57
2017-09-29T10:55:17.429Z,17.83
2017-09-29T10:57:44.912Z,18.73
2017-09-29T11:00:12.387Z,17.67
2017-09-29T11:02:39.053Z,17.53
2017-09-29T11:05:05.701Z,17.73
2017-09-29T11:07:32.362Z,17.40
2017-09-29T11:09:59.161Z,17.40
2017-09-29T11:12:25.748Z,17.23
2017-09-29T11:14:52.306Z,18.30
2017-09-29T11:17:19.081Z,17.67
2017-09-29T11:19:45.855Z,16.10
2017-09-29T11:22:12.761Z,17.17
2017-09-29T11:24:39.474Z,17.90
2017-09-29T11:27:06.118Z,18.40
2017-09-29T11:29:32.688Z,16.93
2017-09-29T11:31:59.477Z,16.10
2017-09-29T11:34:26.213Z,17.00
2017-09-29T11:36:52.848Z,17.20
2017-09-29T11:39:19.644Z,16.73
2017-09-29T11:41:46.318Z,16.23
2017-09-29T11:44:12.964Z,16.20
2017-09-29T11:46:41.861Z,17.10
2017-09-29T11:49:09.371Z,14.97
2017-09-29T11:51:36.216Z,16.30
2017-09-29T11:54:02.926Z,16.10
2017-09-29T11:56:29.788Z,16.20
2017-09-29T11:58:56.694Z,15.17
2017-09-29T12:01:23.349Z,17.20
2017-09-29T12:03:49.941Z,14.40
2017-09-29T12:06:16.901Z,16.03
2017-09-29T12:08:43.681Z,15.73
2017-09-29T12:11:10.440Z,15.17
2017-09-29T12:13:37.128Z,15.27
2017-09-29T12:16:03.911Z,15.30
2017-09-29T12:18:30.593Z,17.10
2017-09-29T12:20:57.292Z,15.37
2017-09-29T12:23:24.066Z,15.27
2017-09-29T12:25:50.816Z,15.10
2017-09-29T12:28:17.478Z,16.07
2017-09-29T12:30:44.189Z,17.77
2017-09-29T12:33:10.892Z,16.10
2017-09-29T12:35:37.722Z,16.80
2017-09-29T12:38:04.409Z,17.80
2017-09-29T12:40:31.161Z,15.80
2017-09-29T12:42:57.883Z,15.73
2017-09-29T12:45:24.650Z,15.33
2017-09-29T12:47:51.372Z,15.80
2017-09-29T12:50:18.051Z,14.90
2017-09-29T12:52:44.661Z,15.70
2017-09-29T12:55:11.454Z,16.00
2017-09-29T12:57:38.006Z,13.97
2017-09-29T13:00:04.859Z,13.97
2017-09-29T13:02:31.668Z,15.73
2017-09-29T13:04:58.422Z,15.83
2017-09-29T13:07:35.130Z,15.87
2017-09-29T13:10:01.797Z,15.47
2017-09-29T13:12:28.385Z,17.10
2017-09-29T13:14:55.162Z,14.13
2017-09-29T13:17:22.081Z,14.77
2017-09-29T13:19:48.661Z,17.00
2017-09-29T13:22:15.259Z,17.47
2017-09-29T13:24:42.765Z,14.43
2017-09-29T13:27:10.390Z,16.73
2017-09-29T13:29:37.189Z,16.67
2017-09-29T13:32:04.094Z,15.97
2017-09-29T13:34:31.078Z,15.90
2017-09-29T13:36:58.069Z,15.17
2017-09-29T13:39:24.969Z,15.60
2017-09-29T13:41:51.698Z,14.83
2017-09-29T13:44:19.130Z,14.63
2017-09-29T13:46:47.966Z,15.27
2017-09-29T13:49:14.769Z,15.70
2017-09-29T13:51:41.596Z,14.87
2017-09-29T13:54:08.209Z,12.93
2017-09-29T13:56:34.939Z,13.57
2017-09-29T13:59:01.758Z,13.00
2017-09-29T14:01:28.571Z,13.50
2017-09-29T14:03:55.301Z,13.77
2017-09-29T14:06:22.937Z,13.80
2017-09-29T14:08:49.768Z,13.70
2017-09-29T14:11:16.657Z,13.90
2017-09-29T14:13:43.248Z,13.70
2017-09-29T14:16:10.917Z,13.27
2017-09-29T14:18:37.576Z,13.83
2017-09-29T14:21:04.333Z,13.20
2017-09-29T14:23:31.099Z,12.37
2017-09-29T14:25:57.983Z,12.80
2017-09-29T14:28:24.775Z,11.87
2017-09-29T14:30:51.748Z,13.07
2017-09-29T14:33:18.369Z,13.50
2017-09-29T14:35:45.258Z,12.37
2017-09-29T14:38:12.186Z,13.33
2017-09-29T14:40:39.689Z,11.50
2017-09-29T14:43:06.251Z,12.80
2017-09-29T14:45:32.977Z,11.80
2017-09-29T14:47:59.804Z,12.37
2017-09-29T14:50:26.932Z,12.30
2017-09-29T14:52:53.670Z,11.53
2017-09-29T14:55:20.509Z,12.00
2017-09-29T14:57:47.212Z,11.57
2017-09-29T15:00:13.992Z,11.67
2017-09-29T15:02:40.800Z,12.17
2017-09-29T15:05:07.581Z,12.93
2017-09-29T15:07:34.443Z,12.13
2017-09-29T15:10:01.232Z,11.97
2017-09-29T15:12:28.151Z,12.70
2017-09-29T15:14:54.837Z,12.00
2017-09-29T15:17:21.779Z,12.43
2017-09-29T15:19:48.395Z,13.00
2017-09-29T15:22:15.280Z,13.50
2017-09-29T15:24:41.768Z,13.03
2017-09-29T15:27:09.301Z,15.13
2017-09-29T15:29:36.164Z,13.37
2017-09-29T15:32:02.987Z,13.67
2017-09-29T15:34:30.514Z,13.70
2017-09-29T15:36:57.530Z,14.70
2017-09-29T15:39:24.945Z,14.57
2017-09-29T15:41:51.605Z,14.97
2017-09-29T15:44:18.281Z,13.80
2017-09-29T15:46:45.158Z,13.70
2017-09-29T15:49:11.917Z,14.40
2017-09-29T15:51:39.177Z,14.20
2017-09-29T15:54:06.015Z,14.20
2017-09-29T15:56:32.783Z,13.97
2017-09-29T15:58:59.561Z,14.80
2017-09-29T16:01:26.505Z,14.20
2017-09-29T16:03:53.301Z,15.30
2017-09-29T16:06:20.268Z,15.00
2017-09-29T16:08:46.901Z,14.40
2017-09-29T16:11:13.771Z,14.00
2017-09-29T16:13:40.458Z,15.27
2017-09-29T16:16:07.098Z,14.33
2017-09-29T16:18:33.809Z,14.60
2017-09-29T16:21:00.603Z,15.37
2017-09-29T16:23:27.503Z,15.33
2017-09-29T16:25:54.312Z,14.70
2017-09-29T16:28:21.073Z,14.80
2017-09-29T16:30:47.592Z,16.00
2017-09-29T16:33:14.391Z,15.97
2017-09-29T16:35:41.131Z,15.17
2017-09-29T16:38:08.004Z,15.40
2017-09-29T16:40:35.159Z,15.60
2017-09-29T16:43:01.821Z,17.00
2017-09-29T16:45:28.436Z,17.27
2017-09-29T16:47:55.139Z,17.23
2017-09-29T16:50:22.914Z,17.70
2017-09-29T16:52:50.689Z,17.27
2017-09-29T16:55:17.287Z,16.83
2017-09-29T16:57:43.841Z,16.13
2017-09-29T17:00:10.539Z,16.90
2017-09-29T17:02:37.085Z,17.67
2017-09-29T17:05:03.805Z,17.70
2017-09-29T17:07:31.232Z,16.70
2017-09-29T17:09:57.892Z,17.80
2017-09-29T17:12:24.764Z,18.20
2017-09-29T17:14:51.406Z,17.23
2017-09-29T17:17:18.194Z,17.37
2017-09-29T17:19:44.829Z,19.70
2017-09-29T17:22:11.523Z,18.70
2017-09-29T17:24:38.379Z,18.27
2017-09-29T17:27:05.181Z,20.10
2017-09-29T17:29:32.030Z,19.90
2017-09-29T17:31:58.921Z,20.20
2017-09-29T17:34:26.330Z,19.97
2017-09-29T17:36:53.050Z,18.83
2017-09-29T17:39:19.805Z,19.00
2017-09-29T17:41:46.641Z,18.67
2017-09-29T17:44:13.331Z,19.70
2017-09-29T17:46:40.166Z,19.53
2017-09-29T17:49:07.113Z,21.93
2017-09-29T17:51:33.982Z,21.00
2017-09-29T17:54:00.996Z,21.10
2017-09-29T17:56:27.806Z,19.33
2017-09-29T17:58:54.696Z,20.30
2017-09-29T18:01:21.696Z,18.60
2017-09-29T18:03:48.345Z,17.67
2017-09-29T18:06:15.384Z,18.37
2017-09-29T18:08:42.130Z,20.30
2017-09-29T18:11:08.887Z,18.83
2017-09-29T18:13:36.536Z,18.40
2017-09-29T18:16:03.466Z,18.40
2017-09-29T18:18:31.029Z,17.43
2017-09-29T18:20:58.741Z,18.10
2017-09-29T18:23:26.512Z,17.30
2017-09-29T18:25:53.429Z,16.37
2017-09-29T18:28:23.961Z,17.80
2017-09-29T18:30:50.688Z,16.60
2017-09-29T18:33:17.946Z,16.60
2017-09-29T18:35:45.033Z,15.93
2017-09-29T18:38:11.843Z,15.80
2017-09-29T18:43:44.021Z,16.90
2017-09-29T18:46:11.031Z,16.87
2017-09-29T18:48:38.211Z,16.70
2017-09-29T18:51:05.104Z,15.80
2017-09-29T18:53:31.781Z,15.20
2017-09-29T18:55:58.404Z,14.23
2017-09-29T18:58:25.181Z,15.70
2017-09-29T19:00:51.942Z,12.80
2017-09-29T19:03:18.720Z,14.93
2017-09-29T19:05:45.462Z,14.20
2017-09-29T19:08:13.198Z,16.10
2017-09-29T19:10:39.910Z,13.10
2017-09-29T19:13:06.493Z,14.43
2017-09-29T19:15:33.391Z,14.57
2017-09-29T19:18:00.733Z,13.53
2017-09-29T19:20:27.436Z,14.80
2017-09-29T19:22:54.071Z,13.50
2017-09-29T19:25:21.782Z,14.13
2017-09-29T19:27:48.647Z,15.10
2017-09-29T19:30:16.054Z,12.53
2017-09-29T19:32:42.708Z,13.80
2017-09-29T19:35:09.520Z,14.17
2017-09-29T19:37:37.072Z,14.20
2017-09-29T19:40:03.940Z,13.13
2017-09-29T19:42:30.691Z,14.67
2017-09-29T19:44:58.083Z,12.83
2017-09-29T19:47:24.850Z,13.33
2017-09-29T19:49:51.489Z,13.80
2017-09-29T19:52:18.350Z,14.03
2017-09-29T19:54:45.889Z,13.83
2017-09-29T19:57:15.857Z,13.30
2017-09-29T19:59:43.005Z,13.80
2017-09-29T20:02:09.838Z,13.57
2017-09-29T20:04:36.617Z,14.23
2017-09-29T20:07:03.375Z,13.50
2017-09-29T20:09:30.174Z,14.87
2017-09-29T20:11:57.807Z,13.73
2017-09-29T20:14:24.673Z,13.90
2017-09-29T20:16:51.583Z,13.90
2017-09-29T20:19:18.405Z,13.50
2017-09-29T20:21:46.044Z,13.40
2017-09-29T20:24:12.674Z,12.53
2017-09-29T20:26:39.318Z,13.43
2017-09-29T20:29:06.218Z,12.80
2017-09-29T20:31:33.099Z,13.00
2017-09-29T20:33:59.933Z,13.00
2017-09-29T20:36:26.603Z,12.50
2017-09-29T20:38:53.357Z,13.50
2017-09-29T20:41:20.015Z,13.00
2017-09-29T20:43:47.284Z,13.40
2017-09-29T20:46:15.575Z,14.17
2017-09-29T20:48:42.463Z,12.70
2017-09-29T20:51:09.298Z,11.80
2017-09-29T20:53:35.967Z,11.83
2017-09-29T20:56:03.554Z,13.13
2017-09-29T20:58:30.310Z,11.50
2017-09-29T21:00:57.240Z,12.20
2017-09-29T21:03:23.823Z,12.27
2017-09-29T21:05:50.583Z,11.13
2017-09-29T21:08:18.148Z,11.93
2017-09-29T21:10:44.889Z,12.80
2017-09-29T21:13:11.621Z,11.83
2017-09-29T21:15:38.448Z,11.30
2017-09-29T21:18:05.133Z,12.17
2017-09-29T21:20:31.869Z,12.40
2017-09-29T21:22:58.413Z,11.30
2017-09-29T21:25:25.115Z,11.97
2017-09-29T21:27:51.882Z,12.00
2017-09-29T21:30:19.421Z,11.23
2017-09-29T21:32:46.399Z,12.40
2017-09-29T21:35:13.326Z,11.13
2017-09-29T21:37:40.788Z,10.77
2017-09-29T21:40:07.580Z,12.57
2017-09-29T21:42:34.416Z,11.10
2017-09-29T21:45:01.983Z,11.37
2017-09-29T21:47:28.756Z,11.90
2017-09-29T21:49:56.105Z,11.23
2017-09-29T21:52:22.937Z,11.50
2017-09-29T21:54:49.730Z,12.23
2017-09-29T21:57:17.238Z,11.47
2017-09-29T21:59:43.974Z,11.37
2017-09-29T22:02:10.691Z,11.60
2017-09-29T22:04:37.555Z,10.97
2017-09-29T22:07:05.055Z,10.50
2017-09-29T22:09:31.930Z,11.67
2017-09-29T22:11:58.741Z,10.30
2017-09-29T22:14:25.514Z,10.20
2017-09-29T22:16:52.423Z,11.33
2017-09-29T22:19:19.255Z,11.20
2017-09-29T22:21:46.068Z,11.27
2017-09-29T22:24:12.829Z,10.30
2017-09-29T22:26:39.413Z,11.37
2017-09-29T22:29:06.938Z,11.30
2017-09-29T22:31:33.758Z,10.77
2017-09-29T22:34:00.558Z,12.30
2017-09-29T22:36:27.137Z,11.27
2017-09-29T22:38:53.759Z,10.70
2017-09-29T22:41:20.326Z,11.67
2017-09-29T22:43:47.246Z,12.07
2017-09-29T22:46:14.022Z,11.57
2017-09-29T22:48:40.794Z,11.80
2017-09-29T22:51:07.433Z,11.93
2017-09-29T22:53:34.105Z,11.30
2017-09-29T22:56:00.948Z,12.50
2017-09-29T22:58:27.688Z,11.27
2017-09-29T23:00:54.299Z,10.53
2017-09-29T23:03:21.260Z,11.87
2017-09-29T23:05:47.990Z,11.30
2017-09-29T23:08:14.557Z,11.70
2017-09-29T23:10:41.528Z,11.37
2017-09-29T23:13:08.342Z,10.27
2017-09-29T23:15:34.871Z,11.20
2017-09-29T23:18:01.614Z,12.33
2017-09-29T23:20:28.645Z,11.60
2017-09-29T23:22:55.415Z,10.93
2017-09-29T23:25:22.167Z,10.70
2017-09-29T23:27:48.984Z,11.00
2017-09-29T23:30:15.751Z,12.90
2017-09-29T23:32:42.438Z,12.10
2017-09-29T23:35:09.277Z,12.53
2017-09-29T23:37:36.100Z,11.93
2017-09-29T23:40:03.040Z,12.73
2017-09-29T23:42:29.826Z,11.13
2017-09-29T23:44:56.870Z,11.93
2017-09-29T23:47:23.672Z,11.60
2017-09-29T23:49:50.869Z,11.77
2017-09-29T23:52:17.424Z,11.90
2017-09-29T23:54:44.260Z,12.60
2017-09-29T23:57:11.100Z,12.30
2017-09-29T23:59:37.962Z,14.13
